Time,TemperatureF,DewpointF,PressureIn,WindDirection,WindDirectionDegrees,WindSpeedMPH,WindSpeedGustMPH,Humidity,HourlyPrecipIn,Conditions,Clouds,dailyrainin,SolarRadiationWatts/m^2,SoftwareType,DateUTC
2013-05-01 00:12:00,45.8,28.0,30.27,South,190,0.0,1.0,51,0.00,,,0.00,0,weatherlink.com 1.10,2013-05-01 04:12:00,
2013-05-01 00:27:00,45.0,28.0,30.27,South,190,0.0,1.0,52,0.00,,,0.00,0,weatherlink.com 1.10,2013-05-01 04:27:00,
2013-05-01 00:42:00,45.0,28.0,30.27,South,190,0.0,1.0,52,0.00,,,0.00,0,weatherlink.com 1.10,2013-05-01 04:42:00,
2013-05-01 00:57:00,44.9,29.0,30.27,South,190,0.0,1.0,53,0.00,,,0.00,0,weatherlink.com 1.10,2013-05-01 04:57:00,
2013-05-01 01:12:00,44.8,28.0,30.27,South,190,0.0,0.0,52,0.00,,,0.00,0,weatherlink.com 1.10,2013-05-01 05:12:00,
2013-05-01 01:27:00,44.9,28.0,30.28,South,190,0.0,1.0,52,0.00,,,0.00,0,weatherlink.com 1.10,2013-05-01 05:27:00,
2013-05-01 01:42:00,44.5,28.0,30.29,South,190,0.0,1.0,53,0.00,,,0.00,0,weatherlink.com 1.10,2013-05-01 05:42:00,
2013-05-01 01:57:00,44.9,28.0,30.29,South,190,0.0,1.0,52,0.00,,,0.00,0,weatherlink.com 1.10,2013-05-01 05:57:00,
2013-05-01 02:12:00,44.4,28.0,30.29,South,190,0.0,1.0,52,0.00,,,0.00,0,weatherlink.com 1.10,2013-05-01 06:12:00,
2013-05-01 02:27:00,44.3,28.0,30.30,South,190,0.0,0.0,53,0.00,,,0.00,0,weatherlink.com 1.10,2013-05-01 06:27:00,
2013-05-01 02:42:00,44.3,27.0,30.30,South,190,0.0,0.0,52,0.00,,,0.00,0,weatherlink.com 1.10,2013-05-01 06:42:00,
2013-05-01 02:57:00,44.0,27.0,30.30,South,190,0.0,1.0,52,0.00,,,0.00,0,weatherlink.com 1.10,2013-05-01 06:57:00,
2013-05-01 03:12:00,43.3,28.0,30.31,South,190,0.0,1.0,56,0.00,,,0.00,0,weatherlink.com 1.10,2013-05-01 07:12:00,
2013-05-01 03:27:00,41.6,28.0,30.31,South,190,0.0,1.0,58,0.00,,,0.00,0,weatherlink.com 1.10,2013-05-01 07:27:00,
2013-05-01 03:42:00,42.6,28.0,30.31,South,190,0.0,1.0,56,0.00,,,0.00,0,weatherlink.com 1.10,2013-05-01 07:42:00,
2013-05-01 03:57:00,43.2,28.0,30.32,South,190,0.0,0.0,55,0.00,,,0.00,0,weatherlink.com 1.10,2013-05-01 07:57:00,
2013-05-01 04:12:00,43.3,27.0,30.32,South,190,0.0,1.0,54,0.00,,,0.00,0,weatherlink.com 1.10,2013-05-01 08:12:00,
2013-05-01 04:27:00,43.4,28.0,30.32,South,190,0.0,1.0,54,0.00,,,0.00,0,weatherlink.com 1.10,2013-05-01 08:27:00,
2013-05-01 04:42:00,43.6,28.0,30.32,South,190,0.0,0.0,55,0.00,,,0.00,0,weatherlink.com 1.10,2013-05-01 08:42:00,
2013-05-01 04:57:00,42.6,29.0,30.32,South,190,0.0,0.0,58,0.00,,,0.00,0,weatherlink.com 1.10,2013-05-01 08:57:00,
2013-05-01 05:12:00,42.4,28.0,30.33,South,190,0.0,0.0,57,0.00,,,0.00,0,weatherlink.com 1.10,2013-05-01 09:12:00,
2013-05-01 05:27:00,43.6,29.0,30.33,South,190,0.0,0.0,56,0.00,,,0.00,0,weatherlink.com 1.10,2013-05-01 09:27:00,
2013-05-01 05:42:00,44.4,29.0,30.33,South,190,0.0,1.0,54,0.00,,,0.00,0,weatherlink.com 1.10,2013-05-01 09:42:00,
2013-05-01 05:57:00,44.4,29.0,30.34,South,190,0.0,1.0,54,0.00,,,0.00,9,weatherlink.com 1.10,2013-05-01 09:57:00,
2013-05-01 06:12:00,45.5,30.0,30.34,South,190,0.0,1.0,54,0.00,,,0.00,23,weatherlink.com 1.10,2013-05-01 10:12:00,
2013-05-01 06:28:00,46.2,30.0,30.35,South,190,0.0,0.0,54,0.00,,,0.00,53,weatherlink.com 1.10,2013-05-01 10:28:00,
2013-05-01 06:43:00,47.6,33.0,30.35,South,190,0.0,0.0,57,0.00,,,0.00,98,weatherlink.com 1.10,2013-05-01 10:43:00,
2013-05-01 06:58:00,50.9,34.0,30.36,South,190,0.0,0.0,53,0.00,,,0.00,153,weatherlink.com 1.10,2013-05-01 10:58:00,
2013-05-01 07:13:00,51.9,36.0,30.36,South,190,0.0,1.0,54,0.00,,,0.00,209,weatherlink.com 1.10,2013-05-01 11:13:00,
2013-05-01 07:29:00,52.3,34.0,30.37,South,190,0.0,1.0,50,0.00,,,0.00,262,weatherlink.com 1.10,2013-05-01 11:29:00,
2013-05-01 07:44:00,51.4,33.0,30.37,SSE,166,1.0,5.0,50,0.00,,,0.00,316,weatherlink.com 1.10,2013-05-01 11:44:00,
2013-05-01 07:59:00,52.3,32.0,30.37,South,177,4.0,7.0,46,0.00,,,0.00,364,weatherlink.com 1.10,2013-05-01 11:59:00,
2013-05-01 08:14:00,53.2,33.0,30.37,SSE,156,6.0,7.0,47,0.00,,,0.00,417,weatherlink.com 1.10,2013-05-01 12:14:00,
2013-05-01 08:29:00,54.7,34.0,30.38,SSE,162,2.0,5.0,45,0.00,,,0.00,468,weatherlink.com 1.10,2013-05-01 12:29:00,
2013-05-01 08:47:00,55.6,34.0,30.38,SE,132,4.0,6.0,44,0.00,,,0.00,526,weatherlink.com 1.10,2013-05-01 12:47:00,
2013-05-01 09:01:00,55.4,34.0,30.38,SSE,148,2.0,6.0,44,0.00,,,0.00,561,weatherlink.com 1.10,2013-05-01 13:01:00,
2013-05-01 09:16:00,57.1,33.0,30.38,SSE,167,0.0,7.0,41,0.00,,,0.00,619,weatherlink.com 1.10,2013-05-01 13:16:00,
2013-05-01 09:31:00,59.0,33.0,30.38,North,360,4.0,5.0,38,0.00,,,0.00,666,weatherlink.com 1.10,2013-05-01 13:31:00,
2013-05-01 09:46:00,59.7,34.0,30.39,NNE,26,1.0,6.0,38,0.00,,,0.00,708,weatherlink.com 1.10,2013-05-01 13:46:00,
2013-05-01 10:01:00,60.5,34.0,30.39,ENE,71,2.0,6.0,37,0.00,,,0.00,749,weatherlink.com 1.10,2013-05-01 14:01:00,
2013-05-01 10:16:00,60.5,34.0,30.38,SE,128,6.0,11.0,37,0.00,,,0.00,784,weatherlink.com 1.10,2013-05-01 14:16:00,
2013-05-01 10:31:00,61.3,33.0,30.39,SSE,148,8.0,11.0,35,0.00,,,0.00,819,weatherlink.com 1.10,2013-05-01 14:31:00,
2013-05-01 10:46:00,61.9,33.0,30.39,NE,55,2.0,10.0,34,0.00,,,0.00,846,weatherlink.com 1.10,2013-05-01 14:46:00,
2013-05-01 11:02:00,62.6,34.0,30.38,ESE,105,1.0,11.0,34,0.00,,,0.00,877,weatherlink.com 1.10,2013-05-01 15:02:00,
2013-05-01 11:17:00,62.9,35.0,30.38,SSE,151,0.0,11.0,36,0.00,,,0.00,905,weatherlink.com 1.10,2013-05-01 15:17:00,
2013-05-01 11:32:00,62.9,35.0,30.37,SE,138,9.0,13.0,35,0.00,,,0.00,925,weatherlink.com 1.10,2013-05-01 15:32:00,
2013-05-01 11:47:00,63.9,34.0,30.37,East,100,6.0,11.0,33,0.00,,,0.00,944,weatherlink.com 1.10,2013-05-01 15:47:00,
2013-05-01 12:02:00,63.1,35.0,30.36,NE,46,5.0,13.0,35,0.00,,,0.00,958,weatherlink.com 1.10,2013-05-01 16:02:00,
2013-05-01 12:17:00,63.2,31.0,30.36,East,93,6.0,15.0,30,0.00,,,0.00,970,weatherlink.com 1.10,2013-05-01 16:17:00,
2013-05-01 12:32:00,63.2,29.0,30.36,ESE,121,2.0,11.0,28,0.00,,,0.00,983,weatherlink.com 1.10,2013-05-01 16:32:00,
2013-05-01 12:48:00,64.6,31.0,30.36,NNW,337,2.0,10.0,29,0.00,,,0.00,995,weatherlink.com 1.10,2013-05-01 16:48:00,
2013-05-01 13:03:00,64.3,28.0,30.36,ENE,71,5.0,12.0,25,0.00,,,0.00,998,weatherlink.com 1.10,2013-05-01 17:03:00,
2013-05-01 13:18:00,64.9,27.0,30.36,SE,145,1.0,12.0,24,0.00,,,0.00,1007,weatherlink.com 1.10,2013-05-01 17:18:00,
2013-05-01 13:33:00,65.6,26.0,30.36,NNE,28,5.0,10.0,22,0.00,,,0.00,1014,weatherlink.com 1.10,2013-05-01 17:33:00,
2013-05-01 13:49:00,66.5,26.0,30.36,East,101,5.0,10.0,22,0.00,,,0.00,1009,weatherlink.com 1.10,2013-05-01 17:49:00,
2013-05-01 14:03:00,66.2,26.0,30.35,East,98,7.0,13.0,22,0.00,,,0.00,997,weatherlink.com 1.10,2013-05-01 18:03:00,
2013-05-01 14:19:00,65.7,28.0,30.35,South,187,7.0,12.0,24,0.00,,,0.00,979,weatherlink.com 1.10,2013-05-01 18:19:00,
2013-05-01 14:34:00,66.3,29.0,30.35,South,182,1.0,9.0,25,0.00,,,0.00,940,weatherlink.com 1.10,2013-05-01 18:34:00,
2013-05-01 14:49:00,66.8,29.0,30.35,NE,37,5.0,11.0,24,0.00,,,0.00,900,weatherlink.com 1.10,2013-05-01 18:49:00,
2013-05-01 15:04:00,66.9,28.0,30.35,East,95,3.0,12.0,23,0.00,,,0.00,858,weatherlink.com 1.10,2013-05-01 19:04:00,
2013-05-01 15:19:00,66.3,27.0,30.35,ESE,119,6.0,11.0,23,0.00,,,0.00,817,weatherlink.com 1.10,2013-05-01 19:19:00,
2013-05-01 15:34:00,66.7,29.0,30.34,SSE,148,4.0,12.0,24,0.00,,,0.00,777,weatherlink.com 1.10,2013-05-01 19:34:00,
2013-05-01 15:49:00,66.5,30.0,30.34,ESE,123,1.0,13.0,25,0.00,,,0.00,731,weatherlink.com 1.10,2013-05-01 19:49:00,
2013-05-01 16:05:00,67.0,29.0,30.34,NE,38,0.0,9.0,24,0.00,,,0.00,675,weatherlink.com 1.10,2013-05-01 20:05:00,
2013-05-01 16:21:00,66.9,31.0,30.34,SW,221,0.0,10.0,26,0.00,,,0.00,628,weatherlink.com 1.10,2013-05-01 20:21:00,
2013-05-01 16:35:00,67.3,31.0,30.34,SSE,165,6.0,10.0,26,0.00,,,0.00,589,weatherlink.com 1.10,2013-05-01 20:35:00,
2013-05-01 16:51:00,66.7,30.0,30.34,East,95,2.0,9.0,25,0.00,,,0.00,534,weatherlink.com 1.10,2013-05-01 20:51:00,
2013-05-01 17:05:00,67.1,33.0,30.34,SSW,192,1.0,9.0,28,0.00,,,0.00,483,weatherlink.com 1.10,2013-05-01 21:05:00,
2013-05-01 17:21:00,66.9,31.0,30.34,ENE,72,4.0,7.0,26,0.00,,,0.00,427,weatherlink.com 1.10,2013-05-01 21:21:00,
2013-05-01 17:35:00,66.5,31.0,30.34,NE,48,0.0,9.0,27,0.00,,,0.00,376,weatherlink.com 1.10,2013-05-01 21:35:00,
2013-05-01 17:51:00,66.8,30.0,30.34,ESE,118,2.0,10.0,25,0.00,,,0.00,306,weatherlink.com 1.10,2013-05-01 21:51:00,
2013-05-01 18:05:00,66.0,30.0,30.34,NE,55,4.0,11.0,26,0.00,,,0.00,218,weatherlink.com 1.10,2013-05-01 22:05:00,
2013-05-01 18:21:00,65.3,31.0,30.34,SE,146,2.0,9.0,28,0.00,,,0.00,165,weatherlink.com 1.10,2013-05-01 22:21:00,
2013-05-01 18:36:00,64.7,31.0,30.34,SE,146,1.0,10.0,28,0.00,,,0.00,51,weatherlink.com 1.10,2013-05-01 22:36:00,
2013-05-01 18:51:00,64.0,31.0,30.35,SSE,148,2.0,6.0,29,0.00,,,0.00,30,weatherlink.com 1.10,2013-05-01 22:51:00,
2013-05-01 19:06:00,63.1,32.0,30.35,SSW,202,8.0,10.0,31,0.00,,,0.00,21,weatherlink.com 1.10,2013-05-01 23:06:00,
2013-05-01 19:21:00,61.9,32.0,30.36,SSW,199,0.0,8.0,32,0.00,,,0.00,14,weatherlink.com 1.10,2013-05-01 23:21:00,
2013-05-01 19:36:00,60.2,32.0,30.35,SSW,198,0.0,5.0,34,0.00,,,0.00,9,weatherlink.com 1.10,2013-05-01 23:36:00,
2013-05-01 19:52:00,58.6,32.0,30.36,SSW,198,0.0,1.0,36,0.00,,,0.00,0,weatherlink.com 1.10,2013-05-01 23:52:00,
2013-05-01 20:07:00,57.9,31.0,30.36,SSW,198,0.0,1.0,36,0.00,,,0.00,0,weatherlink.com 1.10,2013-05-02 00:07:00,
2013-05-01 20:22:00,57.1,31.0,30.37,SSW,198,0.0,1.0,37,0.00,,,0.00,0,weatherlink.com 1.10,2013-05-02 00:22:00,
2013-05-01 20:37:00,56.7,30.0,30.37,SSW,198,0.0,1.0,37,0.00,,,0.00,0,weatherlink.com 1.10,2013-05-02 00:37:00,
2013-05-01 20:52:00,56.3,31.0,30.38,SSW,198,0.0,1.0,38,0.00,,,0.00,0,weatherlink.com 1.10,2013-05-02 00:52:00,
2013-05-01 21:07:00,56.1,31.0,30.38,SSW,198,0.0,1.0,38,0.00,,,0.00,0,weatherlink.com 1.10,2013-05-02 01:07:00,
2013-05-01 21:22:00,55.3,31.0,30.39,SSW,198,0.0,1.0,40,0.00,,,0.00,0,weatherlink.com 1.10,2013-05-02 01:22:00,
2013-05-01 21:37:00,54.9,31.0,30.39,SSW,198,0.0,1.0,40,0.00,,,0.00,0,weatherlink.com 1.10,2013-05-02 01:37:00,
2013-05-01 21:52:00,54.2,31.0,30.39,SSW,198,0.0,4.0,42,0.00,,,0.00,0,weatherlink.com 1.10,2013-05-02 01:52:00,
2013-05-01 22:07:00,54.1,31.0,30.40,SSW,199,0.0,1.0,42,0.00,,,0.00,0,weatherlink.com 1.10,2013-05-02 02:07:00,
2013-05-01 22:22:00,53.0,32.0,30.40,SSW,199,0.0,1.0,45,0.00,,,0.00,0,weatherlink.com 1.10,2013-05-02 02:22:00,
2013-05-01 22:37:00,52.5,33.0,30.39,SSW,199,0.0,1.0,47,0.00,,,0.00,0,weatherlink.com 1.10,2013-05-02 02:37:00,
2013-05-01 22:52:00,52.1,34.0,30.39,SSW,199,0.0,1.0,51,0.00,,,0.00,0,weatherlink.com 1.10,2013-05-02 02:52:00,
2013-05-01 23:07:00,51.8,35.0,30.39,SSW,199,0.0,1.0,54,0.00,,,0.00,0,weatherlink.com 1.10,2013-05-02 03:07:00,
2013-05-01 23:22:00,51.1,36.0,30.39,SSW,199,0.0,1.0,56,0.00,,,0.00,0,weatherlink.com 1.10,2013-05-02 03:22:00,
2013-05-01 23:37:00,50.2,36.0,30.38,SSW,199,0.0,0.0,58,0.00,,,0.00,0,weatherlink.com 1.10,2013-05-02 03:37:00,
2013-05-01 23:52:00,49.5,36.0,30.38,SSW,199,0.0,1.0,60,0.00,,,0.00,0,weatherlink.com 1.10,2013-05-02 03:52:00,